sensor_id;sensor_type;location;lat;lon;timestamp;pressure;altitude;pressure_sealevel;temperature;humidity
76128;BME280;64873;50.102;14.434;2024-03-07T00:02:08;99891.31;;;3.63;75.88
76128;BME280;64873;50.102;14.434;2024-03-07T00:04:33;99896.38;;;3.57;76.54
76128;BME280;64873;50.102;14.434;2024-03-07T00:07:02;99892.66;;;3.67;75.96
76128;BME280;64873;50.102;14.434;2024-03-07T00:09:31;99889.84;;;3.69;76.23
76128;BME280;64873;50.102;14.434;2024-03-07T00:11:56;99893.53;;;3.76;76.32
76128;BME280;64873;50.102;14.434;2024-03-07T00:14:22;99897.84;;;3.77;75.91
76128;BME280;64873;50.102;14.434;2024-03-07T00:16:52;99887.50;;;3.58;76.39
76128;BME280;64873;50.102;14.434;2024-03-07T00:19:18;99894.50;;;3.75;76.36
76128;BME280;64873;50.102;14.434;2024-03-07T00:21:43;99894.72;;;3.82;76.02
76128;BME280;64873;50.102;14.434;2024-03-07T00:24:08;99890.06;;;3.76;76.01
76128;BME280;64873;50.102;14.434;2024-03-07T00:26:34;99884.97;;;3.82;76.02
76128;BME280;64873;50.102;14.434;2024-03-07T00:28:59;99882.63;;;3.79;76.15
76128;BME280;64873;50.102;14.434;2024-03-07T00:31:25;99879.78;;;3.64;76.37
76128;BME280;64873;50.102;14.434;2024-03-07T00:33:51;99860.75;;;3.61;76.41
76128;BME280;64873;50.102;14.434;2024-03-07T00:36:17;99875.59;;;3.54;76.99
76128;BME280;64873;50.102;14.434;2024-03-07T00:38:42;99889.56;;;3.72;76.90
76128;BME280;64873;50.102;14.434;2024-03-07T00:41:07;99883.75;;;3.68;76.89
76128;BME280;64873;50.102;14.434;2024-03-07T00:43:33;99862.22;;;3.55;76.84
76128;BME280;64873;50.102;14.434;2024-03-07T00:45:58;99885.53;;;3.60;77.64
76128;BME280;64873;50.102;14.434;2024-03-07T00:48:24;99883.44;;;3.71;77.23
76128;BME280;64873;50.102;14.434;2024-03-07T00:50:50;99887.28;;;3.77;76.95
76128;BME280;64873;50.102;14.434;2024-03-07T00:53:15;99887.94;;;3.79;76.74
76128;BME280;64873;50.102;14.434;2024-03-07T00:55:41;99878.66;;;3.75;77.28
76128;BME280;64873;50.102;14.434;2024-03-07T00:58:06;99861.47;;;3.71;77.79
76128;BME280;64873;50.102;14.434;2024-03-07T01:00:31;99859.31;;;3.74;77.04
76128;BME280;64873;50.102;14.434;2024-03-07T01:02:57;99881.97;;;3.77;77.31
76128;BME280;64873;50.102;14.434;2024-03-07T01:05:22;99870.59;;;3.77;77.37
76128;BME280;64873;50.102;14.434;2024-03-07T01:07:48;99872.22;;;3.78;77.47
76128;BME280;64873;50.102;14.434;2024-03-07T01:10:16;99866.84;;;3.87;77.39
76128;BME280;64873;50.102;14.434;2024-03-07T01:12:42;99865.16;;;3.86;77.34
76128;BME280;64873;50.102;14.434;2024-03-07T01:15:08;99861.56;;;3.87;77.39
76128;BME280;64873;50.102;14.434;2024-03-07T01:17:35;99856.03;;;3.81;77.40
76128;BME280;64873;50.102;14.434;2024-03-07T01:20:01;99856.25;;;3.87;77.97
76128;BME280;64873;50.102;14.434;2024-03-07T01:22:27;99852.09;;;3.85;78.11
76128;BME280;64873;50.102;14.434;2024-03-07T01:24:52;99853.44;;;3.89;78.20
76128;BME280;64873;50.102;14.434;2024-03-07T01:27:18;99855.28;;;3.88;78.28
76128;BME280;64873;50.102;14.434;2024-03-07T01:29:43;99856.91;;;3.89;78.24
76128;BME280;64873;50.102;14.434;2024-03-07T01:32:10;99854.59;;;3.86;78.92
76128;BME280;64873;50.102;14.434;2024-03-07T01:34:35;99841.66;;;3.75;79.20
76128;BME280;64873;50.102;14.434;2024-03-07T01:37:00;99854.38;;;3.80;79.38
76128;BME280;64873;50.102;14.434;2024-03-07T01:39:27;99853.63;;;3.87;79.95
76128;BME280;64873;50.102;14.434;2024-03-07T01:41:52;99848.47;;;3.86;80.02
76128;BME280;64873;50.102;14.434;2024-03-07T01:44:17;99858.41;;;3.92;80.09
76128;BME280;64873;50.102;14.434;2024-03-07T01:46:43;99847.34;;;3.88;80.55
76128;BME280;64873;50.102;14.434;2024-03-07T01:49:09;99840.06;;;3.90;80.77
76128;BME280;64873;50.102;14.434;2024-03-07T01:51:36;99851.97;;;3.94;80.86
76128;BME280;64873;50.102;14.434;2024-03-07T01:54:02;99841.88;;;3.90;81.34
76128;BME280;64873;50.102;14.434;2024-03-07T01:56:28;99855.94;;;3.90;81.03
76128;BME280;64873;50.102;14.434;2024-03-07T01:58:55;99853.94;;;3.92;81.38
76128;BME280;64873;50.102;14.434;2024-03-07T02:01:22;99850.69;;;4.07;81.35
76128;BME280;64873;50.102;14.434;2024-03-07T02:03:48;99847.72;;;4.10;81.11
76128;BME280;64873;50.102;14.434;2024-03-07T02:06:14;99841.78;;;4.08;81.85
76128;BME280;64873;50.102;14.434;2024-03-07T02:08:39;99830.03;;;4.10;81.60
76128;BME280;64873;50.102;14.434;2024-03-07T02:11:04;99830.19;;;4.00;82.50
76128;BME280;64873;50.102;14.434;2024-03-07T02:13:30;99804.06;;;3.97;81.88
76128;BME280;64873;50.102;14.434;2024-03-07T02:15:57;99833.84;;;4.16;81.92
76128;BME280;64873;50.102;14.434;2024-03-07T02:18:23;99813.34;;;4.10;81.99
76128;BME280;64873;50.102;14.434;2024-03-07T02:20:49;99835.84;;;4.22;82.06
76128;BME280;64873;50.102;14.434;2024-03-07T02:23:14;99834.88;;;4.23;82.31
76128;BME280;64873;50.102;14.434;2024-03-07T02:25:40;99832.06;;;4.24;82.64
76128;BME280;64873;50.102;14.434;2024-03-07T02:28:05;99809.91;;;4.17;82.55
76128;BME280;64873;50.102;14.434;2024-03-07T02:30:32;99836.22;;;4.35;82.36
76128;BME280;64873;50.102;14.434;2024-03-07T02:33:00;99824.00;;;4.34;82.79
76128;BME280;64873;50.102;14.434;2024-03-07T02:35:35;99821.66;;;4.31;83.40
76128;BME280;64873;50.102;14.434;2024-03-07T02:38:04;99814.38;;;4.33;82.69
76128;BME280;64873;50.102;14.434;2024-03-07T02:40:33;99822.31;;;4.33;82.95
76128;BME280;64873;50.102;14.434;2024-03-07T02:42:59;99817.50;;;4.20;83.44
76128;BME280;64873;50.102;14.434;2024-03-07T02:45:25;99799.03;;;4.28;82.82
76128;BME280;64873;50.102;14.434;2024-03-07T02:47:51;99812.41;;;4.35;83.50
76128;BME280;64873;50.102;14.434;2024-03-07T02:50:17;99811.91;;;4.32;83.53
76128;BME280;64873;50.102;14.434;2024-03-07T02:52:42;99799.81;;;4.21;83.79
76128;BME280;64873;50.102;14.434;2024-03-07T02:55:07;99808.09;;;4.26;83.56
76128;BME280;64873;50.102;14.434;2024-03-07T02:57:36;99813.22;;;4.27;83.91
76128;BME280;64873;50.102;14.434;2024-03-07T03:00:02;99796.00;;;4.15;83.86
76128;BME280;64873;50.102;14.434;2024-03-07T03:02:28;99814.22;;;4.26;83.67
76128;BME280;64873;50.102;14.434;2024-03-07T03:04:54;99799.97;;;4.19;83.80
76128;BME280;64873;50.102;14.434;2024-03-07T03:07:19;99794.19;;;4.16;84.43
76128;BME280;64873;50.102;14.434;2024-03-07T03:09:45;99817.72;;;4.35;83.86
76128;BME280;64873;50.102;14.434;2024-03-07T03:12:11;99807.13;;;4.35;83.86
76128;BME280;64873;50.102;14.434;2024-03-07T03:14:36;99795.50;;;4.12;84.22
76128;BME280;64873;50.102;14.434;2024-03-07T03:17:01;99815.53;;;4.31;84.25
76128;BME280;64873;50.102;14.434;2024-03-07T03:19:28;99814.38;;;4.33;84.16
76128;BME280;64873;50.102;14.434;2024-03-07T03:21:53;99807.09;;;4.27;84.10
76128;BME280;64873;50.102;14.434;2024-03-07T03:24:21;99806.75;;;4.14;84.49
76128;BME280;64873;50.102;14.434;2024-03-07T03:26:46;99793.88;;;4.11;84.56
76128;BME280;64873;50.102;14.434;2024-03-07T03:29:11;99809.75;;;4.27;84.77
76128;BME280;64873;50.102;14.434;2024-03-07T03:31:38;99807.78;;;4.29;84.58
76128;BME280;64873;50.102;14.434;2024-03-07T03:34:04;99804.97;;;4.31;84.59
76128;BME280;64873;50.102;14.434;2024-03-07T03:36:29;99807.78;;;4.29;84.62
76128;BME280;64873;50.102;14.434;2024-03-07T03:38:55;99815.41;;;4.40;84.51
76128;BME280;64873;50.102;14.434;2024-03-07T03:41:20;99801.00;;;4.35;84.15
76128;BME280;64873;50.102;14.434;2024-03-07T03:43:46;99806.63;;;4.40;84.45
76128;BME280;64873;50.102;14.434;2024-03-07T03:46:12;99821.00;;;4.37;84.51
76128;BME280;64873;50.102;14.434;2024-03-07T03:48:39;99790.06;;;4.21;84.67
76128;BME280;64873;50.102;14.434;2024-03-07T03:51:09;99804.47;;;4.43;84.28
76128;BME280;64873;50.102;14.434;2024-03-07T03:53:35;99789.91;;;4.31;84.14
76128;BME280;64873;50.102;14.434;2024-03-07T03:56:00;99810.44;;;4.37;84.20
76128;BME280;64873;50.102;14.434;2024-03-07T03:58:26;99806.47;;;4.41;83.97
76128;BME280;64873;50.102;14.434;2024-03-07T04:00:51;99801.19;;;4.41;84.29
76128;BME280;64873;50.102;14.434;2024-03-07T04:03:16;99805.13;;;4.37;84.05
76128;BME280;64873;50.102;14.434;2024-03-07T04:05:42;99792.91;;;4.36;84.20
76128;BME280;64873;50.102;14.434;2024-03-07T04:08:07;99802.16;;;4.48;83.83
76128;BME280;64873;50.102;14.434;2024-03-07T04:10:34;99805.66;;;4.41;83.84
76128;BME280;64873;50.102;14.434;2024-03-07T04:13:00;99812.41;;;4.35;84.62
76128;BME280;64873;50.102;14.434;2024-03-07T04:15:25;99800.53;;;4.47;83.63
76128;BME280;64873;50.102;14.434;2024-03-07T04:17:56;99800.16;;;4.26;84.21
76128;BME280;64873;50.102;14.434;2024-03-07T04:20:22;99799.66;;;4.22;84.99
76128;BME280;64873;50.102;14.434;2024-03-07T04:22:47;99803.44;;;4.20;85.21
76128;BME280;64873;50.102;14.434;2024-03-07T04:25:16;99801.31;;;4.23;85.00
76128;BME280;64873;50.102;14.434;2024-03-07T04:27:42;99807.13;;;4.35;84.73
76128;BME280;64873;50.102;14.434;2024-03-07T04:30:08;99787.44;;;4.38;83.78
76128;BME280;64873;50.102;14.434;2024-03-07T04:32:39;99798.34;;;4.51;83.84
76128;BME280;64873;50.102;14.434;2024-03-07T04:35:06;99783.78;;;4.14;84.16
76128;BME280;64873;50.102;14.434;2024-03-07T04:37:36;99812.41;;;4.43;84.52
76128;BME280;64873;50.102;14.434;2024-03-07T04:40:05;99799.53;;;4.40;83.89
76128;BME280;64873;50.102;14.434;2024-03-07T04:42:43;99794.88;;;4.50;83.39
76128;BME280;64873;50.102;14.434;2024-03-07T04:45:10;99809.78;;;4.51;81.17
76128;BME280;64873;50.102;14.434;2024-03-07T04:47:38;99808.63;;;4.46;79.59
76128;BME280;64873;50.102;14.434;2024-03-07T04:50:04;99808.13;;;4.42;79.84
76128;BME280;64873;50.102;14.434;2024-03-07T04:52:30;99797.53;;;4.50;78.02
76128;BME280;64873;50.102;14.434;2024-03-07T04:54:55;99797.22;;;4.53;76.58
76128;BME280;64873;50.102;14.434;2024-03-07T04:57:20;99812.75;;;4.48;76.52
76128;BME280;64873;50.102;14.434;2024-03-07T04:59:46;99807.16;;;4.76;74.96
76128;BME280;64873;50.102;14.434;2024-03-07T05:02:11;99801.84;;;4.76;72.55
76128;BME280;64873;50.102;14.434;2024-03-07T05:04:37;99809.13;;;4.66;71.38
76128;BME280;64873;50.102;14.434;2024-03-07T05:07:02;99814.91;;;4.61;70.50
76128;BME280;64873;50.102;14.434;2024-03-07T05:09:28;99818.38;;;4.53;69.30
76128;BME280;64873;50.102;14.434;2024-03-07T05:11:54;99816.88;;;4.51;69.32
76128;BME280;64873;50.102;14.434;2024-03-07T05:14:20;99819.03;;;4.55;69.08
76128;BME280;64873;50.102;14.434;2024-03-07T05:16:47;99823.69;;;4.53;68.86
76128;BME280;64873;50.102;14.434;2024-03-07T05:19:32;99815.41;;;4.40;68.24
76128;BME280;64873;50.102;14.434;2024-03-07T05:21:58;99834.25;;;4.45;67.97
76128;BME280;64873;50.102;14.434;2024-03-07T05:24:23;99827.63;;;4.41;67.61
76128;BME280;64873;50.102;14.434;2024-03-07T05:26:49;99831.44;;;4.47;67.70
76128;BME280;64873;50.102;14.434;2024-03-07T05:29:14;99827.28;;;4.44;67.33
76128;BME280;64873;50.102;14.434;2024-03-07T05:31:40;99828.28;;;4.43;66.97
76128;BME280;64873;50.102;14.434;2024-03-07T05:34:17;99836.56;;;4.40;66.38
76128;BME280;64873;50.102;14.434;2024-03-07T05:36:48;99841.66;;;4.34;66.93
76128;BME280;64873;50.102;14.434;2024-03-07T05:39:15;99832.91;;;4.25;66.54
76128;BME280;64873;50.102;14.434;2024-03-07T05:41:42;99831.06;;;4.34;65.71
76128;BME280;64873;50.102;14.434;2024-03-07T05:44:08;99827.28;;;4.28;66.05
76128;BME280;64873;50.102;14.434;2024-03-07T05:46:35;99847.47;;;4.45;65.46
76128;BME280;64873;50.102;14.434;2024-03-07T05:49:00;99833.59;;;4.35;65.73
76128;BME280;64873;50.102;14.434;2024-03-07T05:51:26;99849.63;;;4.42;64.94
76128;BME280;64873;50.102;14.434;2024-03-07T05:53:51;99819.31;;;4.20;64.29
76128;BME280;64873;50.102;14.434;2024-03-07T05:56:17;99861.50;;;4.30;64.33
76128;BME280;64873;50.102;14.434;2024-03-07T05:58:42;99839.81;;;4.18;64.13
76128;BME280;64873;50.102;14.434;2024-03-07T06:01:08;99847.72;;;4.10;64.40
76128;BME280;64873;50.102;14.434;2024-03-07T06:03:34;99865.94;;;4.21;64.90
76128;BME280;64873;50.102;14.434;2024-03-07T06:06:00;99837.28;;;4.00;64.61
76128;BME280;64873;50.102;14.434;2024-03-07T06:08:25;99866.94;;;4.20;64.59
76128;BME280;64873;50.102;14.434;2024-03-07T06:10:50;99862.81;;;4.34;64.36
76128;BME280;64873;50.102;14.434;2024-03-07T06:13:16;99861.34;;;4.23;65.16
76128;BME280;64873;50.102;14.434;2024-03-07T06:15:46;99866.28;;;4.26;66.14
76128;BME280;64873;50.102;14.434;2024-03-07T06:18:13;99874.22;;;4.26;66.48
76128;BME280;64873;50.102;14.434;2024-03-07T06:20:43;99859.00;;;4.12;68.15
76128;BME280;64873;50.102;14.434;2024-03-07T06:23:09;99848.34;;;3.95;69.84
76128;BME280;64873;50.102;14.434;2024-03-07T06:25:37;99868.22;;;4.08;70.86
76128;BME280;64873;50.102;14.434;2024-03-07T06:28:03;99871.53;;;4.10;71.33
76128;BME280;64873;50.102;14.434;2024-03-07T06:30:43;99853.94;;;3.92;71.86
76128;BME280;64873;50.102;14.434;2024-03-07T06:33:09;99869.88;;;4.09;71.35
76128;BME280;64873;50.102;14.434;2024-03-07T06:35:35;99868.56;;;4.05;71.91
76128;BME280;64873;50.102;14.434;2024-03-07T06:38:08;99868.75;;;4.11;71.35
76128;BME280;64873;50.102;14.434;2024-03-07T06:40:38;99874.84;;;4.12;71.62
76128;BME280;64873;50.102;14.434;2024-03-07T06:43:14;99871.06;;;4.14;70.56
76128;BME280;64873;50.102;14.434;2024-03-07T06:45:39;99875.50;;;4.14;69.67
76128;BME280;64873;50.102;14.434;2024-03-07T06:48:07;99872.88;;;4.14;69.41
76128;BME280;64873;50.102;14.434;2024-03-07T06:50:36;99856.94;;;3.97;68.17
76128;BME280;64873;50.102;14.434;2024-03-07T06:53:03;99887.91;;;4.05;69.12
76128;BME280;64873;50.102;14.434;2024-03-07T06:55:28;99878.50;;;4.11;68.63
76128;BME280;64873;50.102;14.434;2024-03-07T06:57:54;99882.50;;;4.23;67.76
76128;BME280;64873;50.102;14.434;2024-03-07T07:00:20;99870.22;;;4.06;67.86
76128;BME280;64873;50.102;14.434;2024-03-07T07:02:48;99885.09;;;4.15;67.70
76128;BME280;64873;50.102;14.434;2024-03-07T07:05:15;99879.13;;;4.05;66.74
76128;BME280;64873;50.102;14.434;2024-03-07T07:07:43;99873.13;;;3.94;66.63
76128;BME280;64873;50.102;14.434;2024-03-07T07:10:10;99896.00;;;4.12;66.33
76128;BME280;64873;50.102;14.434;2024-03-07T07:12:50;99886.56;;;4.09;65.72
76128;BME280;64873;50.102;14.434;2024-03-07T07:15:20;99874.16;;;4.10;65.89
76128;BME280;64873;50.102;14.434;2024-03-07T07:17:46;99888.28;;;4.26;65.80
76128;BME280;64873;50.102;14.434;2024-03-07T07:20:13;99897.72;;;4.29;64.93
76128;BME280;64873;50.102;14.434;2024-03-07T07:22:43;99899.03;;;4.33;64.26
76128;BME280;64873;50.102;14.434;2024-03-07T07:25:09;99878.03;;;4.23;63.17
76128;BME280;64873;50.102;14.434;2024-03-07T07:27:44;99901.72;;;4.41;63.10
76128;BME280;64873;50.102;14.434;2024-03-07T07:30:20;99889.09;;;4.27;62.79
76128;BME280;64873;50.102;14.434;2024-03-07T07:32:50;99897.91;;;4.36;62.30
76128;BME280;64873;50.102;14.434;2024-03-07T07:35:17;99894.78;;;4.40;62.24
76128;BME280;64873;50.102;14.434;2024-03-07T07:37:44;99871.28;;;4.45;62.37
76128;BME280;64873;50.102;14.434;2024-03-07T07:40:12;99876.91;;;4.42;61.00
76128;BME280;64873;50.102;14.434;2024-03-07T07:42:40;99871.94;;;4.31;61.13
76128;BME280;64873;50.102;14.434;2024-03-07T07:45:08;99878.56;;;4.43;61.33
76128;BME280;64873;50.102;14.434;2024-03-07T07:47:38;99895.47;;;4.67;60.41
76128;BME280;64873;50.102;14.434;2024-03-07T07:50:07;99877.13;;;4.65;60.39
76128;BME280;64873;50.102;14.434;2024-03-07T07:52:39;99887.38;;;4.85;59.38
76128;BME280;64873;50.102;14.434;2024-03-07T07:55:05;99889.56;;;4.81;59.29
76128;BME280;64873;50.102;14.434;2024-03-07T07:57:30;99889.84;;;4.53;59.32
76128;BME280;64873;50.102;14.434;2024-03-07T07:59:56;99890.03;;;4.76;59.33
76128;BME280;64873;50.102;14.434;2024-03-07T08:02:21;99891.72;;;4.94;59.18
76128;BME280;64873;50.102;14.434;2024-03-07T08:04:47;99876.47;;;4.88;58.66
76128;BME280;64873;50.102;14.434;2024-03-07T08:07:14;99891.06;;;5.00;58.72
76128;BME280;64873;50.102;14.434;2024-03-07T08:09:40;99880.97;;;4.87;58.13
76128;BME280;64873;50.102;14.434;2024-03-07T08:12:05;99866.38;;;4.91;57.89
76128;BME280;64873;50.102;14.434;2024-03-07T08:14:31;99881.59;;;5.14;57.64
76128;BME280;64873;50.102;14.434;2024-03-07T08:16:57;99888.53;;;5.15;58.05
76128;BME280;64873;50.102;14.434;2024-03-07T08:19:22;99893.19;;;5.29;58.01
76128;BME280;64873;50.102;14.434;2024-03-07T08:21:49;99884.91;;;5.24;57.58
76128;BME280;64873;50.102;14.434;2024-03-07T08:24:14;99873.66;;;5.22;57.62
76128;BME280;64873;50.102;14.434;2024-03-07T08:26:40;99889.53;;;5.46;57.06
76128;BME280;64873;50.102;14.434;2024-03-07T08:29:09;99885.56;;;5.26;57.93
76128;BME280;64873;50.102;14.434;2024-03-07T08:31:34;99874.28;;;5.40;56.84
76128;BME280;64873;50.102;14.434;2024-03-07T08:34:00;99868.16;;;5.48;56.73
76128;BME280;64873;50.102;14.434;2024-03-07T08:36:25;99882.53;;;5.53;56.20
76128;BME280;64873;50.102;14.434;2024-03-07T08:38:51;99883.91;;;5.41;56.62
76128;BME280;64873;50.102;14.434;2024-03-07T08:41:17;99877.63;;;5.18;57.19
76128;BME280;64873;50.102;14.434;2024-03-07T08:43:43;99859.28;;;5.00;58.17
76128;BME280;64873;50.102;14.434;2024-03-07T08:46:10;99885.84;;;5.55;56.50
76128;BME280;64873;50.102;14.434;2024-03-07T08:48:35;99878.88;;;5.54;56.36
76128;BME280;64873;50.102;14.434;2024-03-07T08:51:00;99876.13;;;5.15;57.89
76128;BME280;64873;50.102;14.434;2024-03-07T08:53:26;99875.25;;;5.64;55.64
76128;BME280;64873;50.102;14.434;2024-03-07T08:55:51;99866.28;;;5.56;55.82
76128;BME280;64873;50.102;14.434;2024-03-07T08:58:16;99874.81;;;5.19;57.85
76128;BME280;64873;50.102;14.434;2024-03-07T09:00:42;99868.69;;;4.94;57.98
76128;BME280;64873;50.102;14.434;2024-03-07T09:03:10;99875.91;;;5.57;56.21
76128;BME280;64873;50.102;14.434;2024-03-07T09:05:35;99880.44;;;5.24;57.20
76128;BME280;64873;50.102;14.434;2024-03-07T09:08:01;99874.09;;;5.58;55.92
76128;BME280;64873;50.102;14.434;2024-03-07T09:10:28;99872.66;;;5.15;56.98
76128;BME280;64873;50.102;14.434;2024-03-07T09:12:57;99871.91;;;5.70;55.40
76128;BME280;64873;50.102;14.434;2024-03-07T09:15:23;99869.94;;;5.64;55.68
76128;BME280;64873;50.102;14.434;2024-03-07T09:17:48;99850.13;;;5.19;56.14
76128;BME280;64873;50.102;14.434;2024-03-07T09:20:14;99866.00;;;5.43;55.94
76128;BME280;64873;50.102;14.434;2024-03-07T09:22:46;99847.78;;;5.40;55.89
76128;BME280;64873;50.102;14.434;2024-03-07T09:25:16;99874.56;;;5.61;55.51
76128;BME280;64873;50.102;14.434;2024-03-07T09:27:42;99878.56;;;5.57;56.05
76128;BME280;64873;50.102;14.434;2024-03-07T09:30:08;99857.50;;;5.56;55.57
76128;BME280;64873;50.102;14.434;2024-03-07T09:32:43;99872.41;;;5.57;56.08
76128;BME280;64873;50.102;14.434;2024-03-07T09:35:09;99877.56;;;5.50;55.95
76128;BME280;64873;50.102;14.434;2024-03-07T09:37:39;99878.44;;;5.34;56.58
76128;BME280;64873;50.102;14.434;2024-03-07T09:40:06;99873.94;;;5.51;56.38
76128;BME280;64873;50.102;14.434;2024-03-07T09:42:32;99873.19;;;5.74;56.23
76128;BME280;64873;50.102;14.434;2024-03-07T09:45:00;99857.75;;;5.94;54.17
76128;BME280;64873;50.102;14.434;2024-03-07T09:47:28;99869.41;;;6.47;53.42
76128;BME280;64873;50.102;14.434;2024-03-07T09:49:54;99872.41;;;6.12;54.55
76128;BME280;64873;50.102;14.434;2024-03-07T09:52:21;99874.22;;;5.65;55.82
76128;BME280;64873;50.102;14.434;2024-03-07T09:54:46;99852.97;;;5.81;55.56
76128;BME280;64873;50.102;14.434;2024-03-07T09:57:13;99872.47;;;6.04;54.71
76128;BME280;64873;50.102;14.434;2024-03-07T09:59:41;99880.91;;;5.52;55.67
76128;BME280;64873;50.102;14.434;2024-03-07T10:02:08;99849.88;;;6.08;54.19
76128;BME280;64873;50.102;14.434;2024-03-07T10:04:42;99859.97;;;6.44;53.79
76128;BME280;64873;50.102;14.434;2024-03-07T10:07:11;99875.19;;;5.72;56.35
76128;BME280;64873;50.102;14.434;2024-03-07T10:09:39;99868.56;;;5.68;56.44
76128;BME280;64873;50.102;14.434;2024-03-07T10:12:06;99869.00;;;5.32;56.76
76128;BME280;64873;50.102;14.434;2024-03-07T10:15:02;99845.75;;;5.50;56.48
76128;BME280;64873;50.102;14.434;2024-03-07T10:17:24;99874.91;;;5.58;55.99
76128;BME280;64873;50.102;14.434;2024-03-07T10:19:51;99878.91;;;5.38;57.06
76128;BME280;64873;50.102;14.434;2024-03-07T10:22:18;99871.13;;;5.45;57.84
76128;BME280;64873;50.102;14.434;2024-03-07T10:24:52;99873.28;;;5.41;57.77
76128;BME280;64873;50.102;14.434;2024-03-07T10:27:21;99849.81;;;5.14;58.07
76128;BME280;64873;50.102;14.434;2024-03-07T10:29:48;99878.75;;;5.48;57.63
76128;BME280;64873;50.102;14.434;2024-03-07T10:32:20;99853.09;;;5.16;57.38
76128;BME280;64873;50.102;14.434;2024-03-07T10:34:46;99872.13;;;5.44;56.58
76128;BME280;64873;50.102;14.434;2024-03-07T10:37:14;99852.75;;;5.43;56.20
76128;BME280;64873;50.102;14.434;2024-03-07T10:39:45;99867.44;;;5.70;55.83
76128;BME280;64873;50.102;14.434;2024-03-07T10:42:15;99856.31;;;5.67;55.34
76128;BME280;64873;50.102;14.434;2024-03-07T10:44:46;99862.13;;;6.18;53.87
76128;BME280;64873;50.102;14.434;2024-03-07T10:47:21;99874.13;;;5.97;53.97
76128;BME280;64873;50.102;14.434;2024-03-07T10:52:35;99865.13;;;5.59;54.46
76128;BME280;64873;50.102;14.434;2024-03-07T10:57:56;99869.25;;;5.70;54.21
76128;BME280;64873;50.102;14.434;2024-03-07T11:00:26;99852.13;;;5.80;53.81
76128;BME280;64873;50.102;14.434;2024-03-07T11:02:56;99868.13;;;6.03;53.66
76128;BME280;64873;50.102;14.434;2024-03-07T11:05:25;99872.50;;;5.80;54.87
76128;BME280;64873;50.102;14.434;2024-03-07T11:08:00;99867.19;;;5.96;54.35
76128;BME280;64873;50.102;14.434;2024-03-07T11:10:30;99865.88;;;5.92;55.01
76128;BME280;64873;50.102;14.434;2024-03-07T11:12:57;99873.50;;;5.87;55.51
76128;BME280;64873;50.102;14.434;2024-03-07T11:15:23;99847.91;;;6.02;55.17
76128;BME280;64873;50.102;14.434;2024-03-07T11:17:53;99869.72;;;5.81;55.16
76128;BME280;64873;50.102;14.434;2024-03-07T11:20:26;99863.22;;;5.92;54.76
76128;BME280;64873;50.102;14.434;2024-03-07T11:22:52;99854.59;;;5.98;54.61
76128;BME280;64873;50.102;14.434;2024-03-07T11:25:22;99841.63;;;5.48;56.15
76128;BME280;64873;50.102;14.434;2024-03-07T11:27:58;99856.00;;;5.70;55.61
76128;BME280;64873;50.102;14.434;2024-03-07T11:30:25;99858.59;;;5.94;54.81
76128;BME280;64873;50.102;14.434;2024-03-07T11:32:51;99835.06;;;5.83;54.69
76128;BME280;64873;50.102;14.434;2024-03-07T11:35:21;99846.63;;;5.90;54.94
76128;BME280;64873;50.102;14.434;2024-03-07T11:37:59;99851.94;;;5.98;54.17
76128;BME280;64873;50.102;14.434;2024-03-07T11:42:52;99847.78;;;6.27;53.18
76128;BME280;64873;50.102;14.434;2024-03-07T11:45:19;99837.06;;;6.89;55.79
76128;BME280;64873;50.102;14.434;2024-03-07T11:50:31;99826.91;;;5.84;55.18
76128;BME280;64873;50.102;14.434;2024-03-07T11:53:01;99825.84;;;6.79;56.00
76128;BME280;64873;50.102;14.434;2024-03-07T11:55:27;99840.59;;;7.04;53.65
76128;BME280;64873;50.102;14.434;2024-03-07T11:58:10;99816.53;;;6.83;53.31
76128;BME280;64873;50.102;14.434;2024-03-07T12:00:41;99839.00;;;6.95;53.18
76128;BME280;64873;50.102;14.434;2024-03-07T12:03:17;99815.59;;;6.76;53.03
76128;BME280;64873;50.102;14.434;2024-03-07T12:05:47;99819.00;;;6.15;53.89
76128;BME280;64873;50.102;14.434;2024-03-07T12:08:13;99827.75;;;5.85;55.17
76128;BME280;64873;50.102;14.434;2024-03-07T12:10:42;99833.28;;;5.75;56.26
76128;BME280;64873;50.102;14.434;2024-03-07T12:13:13;99831.41;;;5.84;56.15
76128;BME280;64873;50.102;14.434;2024-03-07T12:15:42;99832.63;;;6.12;57.14
76128;BME280;64873;50.102;14.434;2024-03-07T12:18:09;99834.63;;;6.10;55.74
76128;BME280;64873;50.102;14.434;2024-03-07T12:20:40;99835.75;;;5.77;55.93
76128;BME280;64873;50.102;14.434;2024-03-07T12:23:06;99832.72;;;5.80;55.71
76128;BME280;64873;50.102;14.434;2024-03-07T12:25:34;99836.69;;;5.84;55.91
76128;BME280;64873;50.102;14.434;2024-03-07T12:28:09;99812.84;;;5.84;55.02
76128;BME280;64873;50.102;14.434;2024-03-07T12:30:55;99818.50;;;5.81;55.29
76128;BME280;64873;50.102;14.434;2024-03-07T12:33:22;99815.50;;;6.15;54.57
76128;BME280;64873;50.102;14.434;2024-03-07T12:35:52;99829.41;;;6.48;53.58
76128;BME280;64873;50.102;14.434;2024-03-07T12:38:21;99832.72;;;6.50;54.01
76128;BME280;64873;50.102;14.434;2024-03-07T12:41:01;99810.19;;;6.46;53.25
76128;BME280;64873;50.102;14.434;2024-03-07T12:43:31;99816.78;;;6.50;53.63
76128;BME280;64873;50.102;14.434;2024-03-07T12:45:58;99828.53;;;6.56;53.39
76128;BME280;64873;50.102;14.434;2024-03-07T12:48:24;99822.69;;;6.37;53.91
76128;BME280;64873;50.102;14.434;2024-03-07T12:50:51;99823.16;;;6.41;53.91
76128;BME280;64873;50.102;14.434;2024-03-07T12:53:23;99829.25;;;5.87;54.81
76128;BME280;64873;50.102;14.434;2024-03-07T12:55:51;99819.84;;;5.77;54.85
76128;BME280;64873;50.102;14.434;2024-03-07T12:58:17;99804.88;;;5.84;54.50
76128;BME280;64873;50.102;14.434;2024-03-07T13:00:44;99811.66;;;5.95;54.46
76128;BME280;64873;50.102;14.434;2024-03-07T13:03:10;99810.84;;;5.94;54.41
76128;BME280;64873;50.102;14.434;2024-03-07T13:05:37;99822.75;;;5.98;53.84
76128;BME280;64873;50.102;14.434;2024-03-07T13:08:06;99810.13;;;6.31;53.50
76128;BME280;64873;50.102;14.434;2024-03-07T13:10:39;99823.03;;;6.34;53.51
76128;BME280;64873;50.102;14.434;2024-03-07T13:13:06;99809.13;;;6.55;53.23